createdAt,value
2023-05-12T00:02:55.997Z,101788.34
2023-05-12T00:07:59.815Z,101787.72
2023-05-12T00:13:01.516Z,101784.16
2023-05-12T00:18:03.239Z,101787.88
2023-05-12T00:23:05.059Z,101787.19
2023-05-12T00:28:09.846Z,101789.88
2023-05-12T00:33:14.021Z,101789.91
2023-05-12T00:38:15.700Z,101779.97
2023-05-12T00:43:17.451Z,101788.31
2023-05-12T00:48:23.755Z,101794.66
2023-05-12T00:53:37.570Z,101794.31
2023-05-12T00:58:49.916Z,101802.84
2023-05-12T01:03:54.099Z,101791.59
2023-05-12T01:09:04.866Z,101790.25
2023-05-12T01:14:06.549Z,101794.59
2023-05-12T01:19:19.103Z,101789.94
2023-05-12T01:24:21.648Z,101792.81
2023-05-12T01:29:26.023Z,101793.31
2023-05-12T01:34:28.254Z,101795.81
2023-05-12T01:39:32.676Z,101800.84
2023-05-12T01:44:34.477Z,101799.97
2023-05-12T01:49:38.465Z,101798.94
2023-05-12T01:54:42.642Z,101812.16
2023-05-12T01:59:45.345Z,101805.66
2023-05-12T02:04:47.420Z,101814.19
2023-05-12T02:09:52.176Z,101817.69
2023-05-12T02:14:54.182Z,101821.91
2023-05-12T02:19:56.452Z,101831.47
2023-05-12T02:24:59.052Z,101832.63
2023-05-12T02:30:01.434Z,101830.81
2023-05-12T02:35:08.207Z,101828.81
2023-05-12T02:40:11.930Z,101834.69
2023-05-12T02:45:17.272Z,101831.88
2023-05-12T02:50:22.196Z,101838.94
2023-05-12T02:55:24.406Z,101838.59
2023-05-12T03:00:28.397Z,101834.91
2023-05-12T03:05:32.434Z,101843.44
2023-05-12T03:10:34.441Z,101843.44
2023-05-12T03:15:36.745Z,101845.31
2023-05-12T03:20:41.240Z,101848.66
2023-05-12T03:25:47.556Z,101845.97
2023-05-12T03:30:49.249Z,101847.81
2023-05-12T03:35:58.026Z,101852.00
2023-05-12T03:41:04.229Z,101849.34
2023-05-12T03:46:08.410Z,101850.00
2023-05-12T03:51:14.307Z,101851.84
2023-05-12T03:56:18.392Z,101858.56
2023-05-12T04:01:22.800Z,101856.56
2023-05-12T04:06:29.016Z,101859.06
2023-05-12T04:11:32.256Z,101864.41
2023-05-12T04:16:37.877Z,101874.72
2023-05-12T04:21:39.685Z,101865.63
2023-05-12T04:26:43.733Z,101880.06
2023-05-12T04:31:45.589Z,101893.63
2023-05-12T04:36:47.665Z,101879.22
2023-05-12T04:41:49.451Z,101897.81
2023-05-12T04:46:56.322Z,101912.91
2023-05-12T04:51:58.432Z,101916.94
2023-05-12T04:57:00.197Z,101921.81
2023-05-12T05:02:04.415Z,101924.81
2023-05-12T05:07:13.505Z,101942.09
2023-05-12T05:12:20.278Z,101955.88
2023-05-12T05:17:23.159Z,101959.09
2023-05-12T05:22:29.970Z,101948.69
2023-05-12T05:27:33.949Z,101949.88
2023-05-12T05:32:41.231Z,101961.47
2023-05-12T05:37:45.095Z,101971.50
2023-05-12T05:42:49.162Z,101973.03
2023-05-12T05:47:53.172Z,101986.28
2023-05-12T05:52:59.044Z,101983.59
2023-05-12T05:58:03.661Z,101990.47
2023-05-12T06:03:05.674Z,101993.13
2023-05-12T06:08:13.164Z,101998.50
2023-05-12T06:13:14.960Z,101998.16
2023-05-12T06:18:20.976Z,102006.72
2023-05-12T06:23:24.946Z,102008.00
2023-05-12T06:28:28.676Z,102010.84
2023-05-12T06:33:32.764Z,102013.03
2023-05-12T06:38:36.816Z,102020.03
2023-05-12T06:43:43.408Z,102028.38
2023-05-12T06:48:48.768Z,102034.53
2023-05-12T06:53:50.565Z,102042.84
2023-05-12T06:58:52.699Z,102038.50
2023-05-12T07:04:02.515Z,102044.91
2023-05-12T07:09:04.467Z,102043.25
2023-05-12T07:14:06.267Z,102040.66
2023-05-12T07:19:09.606Z,102035.94
2023-05-12T07:24:11.595Z,102044.94
2023-05-12T07:29:15.479Z,102048.22
2023-05-12T07:34:17.379Z,102063.25
2023-05-12T07:39:23.825Z,102051.59
2023-05-12T07:44:26.366Z,102056.59
2023-05-12T07:49:28.032Z,102051.00
2023-05-12T07:54:29.733Z,102061.75
2023-05-12T07:59:36.008Z,102065.28
2023-05-12T08:04:37.800Z,102068.63
2023-05-12T08:09:39.509Z,102075.75
2023-05-12T08:14:41.334Z,102073.31
2023-05-12T08:19:43.110Z,102083.31
2023-05-12T08:24:46.030Z,102082.88
2023-05-12T08:29:52.264Z,102080.88
2023-05-12T08:34:54.471Z,102078.13
2023-05-12T08:40:01.605Z,102093.94
2023-05-12T08:45:04.296Z,102082.88
2023-05-12T08:50:06.599Z,102085.09
2023-05-12T08:55:09.610Z,102095.97
2023-05-12T09:00:21.992Z,102096.50
2023-05-12T09:05:24.388Z,102107.25
2023-05-12T09:10:35.033Z,102096.78
2023-05-12T09:15:43.026Z,102104.56
2023-05-12T09:20:44.823Z,102106.09
2023-05-12T09:25:49.324Z,102112.41
2023-05-12T09:30:50.989Z,102123.88
2023-05-12T09:35:55.002Z,102107.72
2023-05-12T09:40:56.715Z,102122.53
2023-05-12T09:46:07.188Z,102123.88
2023-05-12T09:51:11.475Z,102121.63
2023-05-12T09:56:16.924Z,102124.41
2023-05-12T10:01:24.389Z,102126.25
2023-05-12T10:06:30.103Z,102125.03
2023-05-12T10:11:32.051Z,102125.53
2023-05-12T10:16:34.198Z,102130.06
2023-05-12T10:21:40.054Z,102118.50
2023-05-12T10:26:42.960Z,102129.22
2023-05-12T10:31:45.432Z,102135.38
2023-05-12T10:36:52.274Z,102128.75
2023-05-12T10:42:01.884Z,102132.34
2023-05-12T10:47:15.095Z,102119.16
2023-05-12T10:52:20.181Z,102118.97
2023-05-12T10:57:22.282Z,102120.03
2023-05-12T11:02:34.444Z,102121.22
2023-05-12T11:07:41.864Z,102124.97
2023-05-12T11:12:44.751Z,102121.91
2023-05-12T11:17:48.971Z,102120.34
2023-05-12T11:22:51.227Z,102117.47
2023-05-12T11:27:52.910Z,102122.28
2023-05-12T11:33:02.327Z,102114.00
2023-05-12T11:38:15.756Z,102121.59
2023-05-12T11:43:20.745Z,102122.97
2023-05-12T11:48:22.577Z,102133.06
2023-05-12T11:53:29.310Z,102130.47
2023-05-12T11:58:31.032Z,102140.56
2023-05-12T12:03:45.027Z,102140.47
2023-05-12T12:09:00.183Z,102138.75
2023-05-12T12:14:04.898Z,102140.47
2023-05-12T12:19:07.436Z,102142.94
2023-05-12T12:24:09.194Z,102141.13
2023-05-12T12:29:11.198Z,102142.59
2023-05-12T12:34:15.748Z,102137.88
2023-05-12T12:39:21.762Z,102146.44
2023-05-12T12:44:25.759Z,102129.13
2023-05-12T12:49:29.662Z,102119.28
2023-05-12T12:54:31.453Z,102120.06
2023-05-12T12:59:35.546Z,102120.34
2023-05-12T13:04:37.708Z,102124.38
2023-05-12T13:09:41.829Z,102121.38
2023-05-12T13:14:43.506Z,102117.44
2023-05-12T13:19:45.410Z,102128.22
2023-05-12T13:24:49.656Z,102126.16
2023-05-12T13:29:51.946Z,102123.72
2023-05-12T13:34:56.676Z,102132.69
2023-05-12T13:40:00.876Z,102125.53
2023-05-12T13:45:02.773Z,102131.84
2023-05-12T13:50:07.719Z,102124.31
2023-05-12T13:55:10.985Z,102120.91
2023-05-12T14:00:18.848Z,102124.00
2023-05-12T14:05:20.807Z,102124.84
2023-05-12T14:10:25.132Z,102112.56
2023-05-12T14:15:44.349Z,102116.94
2023-05-12T14:20:52.949Z,102112.63
2023-05-12T14:25:57.251Z,102120.63
2023-05-12T14:30:59.030Z,102124.97
2023-05-12T14:36:08.731Z,102121.22
2023-05-12T14:41:11.146Z,102125.88
2023-05-12T14:46:12.920Z,102115.59
2023-05-12T14:51:14.623Z,102126.28
2023-05-12T14:56:19.120Z,102128.66
2023-05-12T15:01:23.223Z,102120.69
2023-05-12T15:06:27.193Z,102129.75
2023-05-12T15:11:29.522Z,102131.88
2023-05-12T15:16:32.946Z,102136.72
2023-05-12T15:21:35.479Z,102136.69
2023-05-12T15:26:40.268Z,102136.97
2023-05-12T15:31:45.663Z,102134.13
2023-05-12T15:36:52.615Z,102135.13
2023-05-12T15:41:56.892Z,102123.94
2023-05-12T15:46:58.855Z,102129.59
2023-05-12T15:52:02.890Z,102135.31
2023-05-12T15:57:06.420Z,102134.16
2023-05-12T16:02:08.351Z,102139.09
2023-05-12T16:07:10.459Z,102141.06
2023-05-12T16:12:15.286Z,102143.69
2023-05-12T16:17:19.235Z,102148.28
2023-05-12T16:22:23.382Z,102145.97
2023-05-12T16:27:25.501Z,102140.50
2023-05-12T16:32:29.786Z,102147.50
2023-05-12T16:37:33.645Z,102143.34
2023-05-12T16:42:37.692Z,102152.53
2023-05-12T16:47:39.572Z,102136.72
2023-05-12T16:52:48.923Z,102143.09
2023-05-12T16:57:51.100Z,102138.69
2023-05-12T17:02:53.326Z,102138.94
2023-05-12T17:07:57.561Z,102142.50
2023-05-12T17:12:59.272Z,102146.91
2023-05-12T17:18:01.320Z,102133.16
2023-05-12T17:23:05.663Z,102136.16
2023-05-12T17:28:07.351Z,102142.84
2023-05-12T17:33:13.019Z,102133.69
2023-05-12T17:38:19.251Z,102143.72
2023-05-12T17:43:23.540Z,102143.69
2023-05-12T17:48:26.457Z,102135.19
2023-05-12T17:53:31.429Z,102137.81
2023-05-12T17:58:35.190Z,102139.53
2023-05-12T18:03:37.986Z,102143.78
2023-05-12T18:08:40.240Z,102137.63
2023-05-12T18:13:42.304Z,102148.94
2023-05-12T18:18:45.933Z,102148.47
2023-05-12T18:23:50.290Z,102143.75
2023-05-12T18:28:54.081Z,102151.00
2023-05-12T18:33:58.286Z,102152.13
2023-05-12T18:38:59.962Z,102158.69
2023-05-12T18:44:04.686Z,102164.94
2023-05-12T18:49:06.449Z,102165.00
2023-05-12T18:54:10.568Z,102166.88
2023-05-12T18:59:15.218Z,102167.09
2023-05-12T19:04:17.180Z,102177.31
2023-05-12T19:09:23.949Z,102183.16
2023-05-12T19:14:25.682Z,102186.25
2023-05-12T19:19:27.352Z,102195.88
2023-05-12T19:24:29.654Z,102195.56
2023-05-12T19:29:32.693Z,102197.81
2023-05-12T19:34:39.226Z,102206.50
2023-05-12T19:39:40.912Z,102201.88
2023-05-12T19:44:45.114Z,102206.59
2023-05-12T19:49:46.856Z,102222.91
2023-05-12T19:54:48.684Z,102213.22
2023-05-12T19:59:55.242Z,102216.47
2023-05-12T20:05:00.586Z,102218.88
2023-05-12T20:10:03.051Z,102222.97
2023-05-12T20:15:05.772Z,102220.59
2023-05-12T20:20:08.213Z,102228.78
2023-05-12T20:25:12.450Z,102231.13
2023-05-12T20:30:14.552Z,102226.72
2023-05-12T20:35:19.441Z,102239.94
2023-05-12T20:40:21.589Z,102240.81
2023-05-12T20:45:28.202Z,102230.94
2023-05-12T20:50:32.175Z,102244.50
2023-05-12T20:55:36.787Z,102252.06
2023-05-12T21:00:41.600Z,102252.63
2023-05-12T21:05:47.697Z,102253.44
2023-05-12T21:10:49.712Z,102255.31
2023-05-12T21:15:51.532Z,102259.81
2023-05-12T21:20:55.442Z,102269.75
2023-05-12T21:25:57.118Z,102274.47
2023-05-12T21:30:59.082Z,102269.66
2023-05-12T21:36:03.446Z,102265.88
2023-05-12T21:41:07.749Z,102273.16
2023-05-12T21:46:09.459Z,102274.06
2023-05-12T21:51:13.659Z,102267.72
2023-05-12T21:56:15.437Z,102268.06
2023-05-12T22:01:18.396Z,102270.28
2023-05-12T22:06:20.157Z,102278.41
2023-05-12T22:11:25.064Z,102282.19
2023-05-12T22:16:38.317Z,102281.00
2023-05-12T22:21:43.439Z,102279.34
2023-05-12T22:26:47.482Z,102288.47
2023-05-12T22:31:49.318Z,102284.16
2023-05-12T22:36:53.095Z,102290.75
2023-05-12T22:41:54.735Z,102300.50
2023-05-12T22:46:56.517Z,102300.34
2023-05-12T22:51:58.521Z,102294.66
2023-05-12T22:57:02.297Z,102295.69
2023-05-12T23:02:04.925Z,102303.94
2023-05-12T23:07:09.025Z,102298.72
2023-05-12T23:12:11.306Z,102301.56
2023-05-12T23:17:12.969Z,102299.91
2023-05-12T23:22:14.674Z,102305.94
2023-05-12T23:27:16.362Z,102297.31
2023-05-12T23:32:20.407Z,102296.28
2023-05-12T23:37:24.372Z,102288.19
2023-05-12T23:42:28.316Z,102292.56
2023-05-12T23:47:32.493Z,102292.91
2023-05-12T23:52:34.228Z,102287.50
2023-05-12T23:57:40.745Z,102282.09
